createdAt,value
2018-06-13T18:15:37.312Z,74.90
2018-06-13T18:39:30.002Z,75.50
2018-06-13T19:58:08.365Z,80.90
2018-06-13T20:00:53.265Z,82.30
2018-06-13T20:06:44.050Z,81.80
2018-06-13T20:10:20.924Z,80.10
2018-06-13T20:13:01.545Z,80.10
2018-06-13T20:18:34.365Z,80.70
2018-06-13T20:21:13.243Z,81.60
2018-06-13T20:23:50.053Z,81.00
2018-06-13T20:28:32.032Z,80.80
2018-06-13T20:31:14.760Z,82.20
2018-06-13T20:33:55.837Z,83.70
2018-06-13T20:36:37.790Z,84.10
2018-06-13T20:39:10.246Z,84.50
2018-06-13T20:41:43.395Z,84.40
2018-06-13T20:44:18.496Z,82.90
2018-06-13T20:51:16.477Z,82.00
2018-06-13T20:54:58.134Z,81.80
2018-06-13T20:57:28.156Z,82.00
2018-06-13T20:59:59.069Z,82.60
2018-06-13T21:02:33.575Z,83.40
2018-06-13T21:05:06.555Z,83.30
2018-06-13T21:10:37.935Z,81.60
2018-06-13T21:13:11.806Z,82.90
2018-06-13T21:16:21.038Z,83.20
2018-06-13T21:21:53.683Z,84.20
2018-06-13T21:24:22.298Z,83.70
2018-06-13T21:26:50.872Z,83.20
2018-06-13T21:29:22.847Z,84.10
2018-06-13T21:31:51.691Z,83.10
2018-06-13T21:46:35.857Z,83.80
2018-06-13T21:49:33.481Z,83.20
2018-06-13T21:52:04.333Z,83.80
2018-06-13T21:57:40.800Z,84.90
2018-06-13T22:00:14.720Z,85.20
2018-06-13T22:05:04.710Z,85.20
2018-06-13T22:10:36.261Z,86.00
2018-06-13T22:16:16.959Z,86.00
2018-06-13T22:18:49.152Z,86.20
2018-06-13T22:21:24.740Z,86.10
2018-06-13T22:23:56.400Z,85.90
2018-06-13T22:26:27.970Z,86.00
2018-06-13T22:29:06.282Z,85.70
2018-06-13T22:31:40.967Z,85.60
2018-06-13T22:34:16.252Z,86.30
2018-06-13T22:37:15.586Z,85.80
2018-06-13T22:45:16.437Z,86.50
2018-06-13T22:47:59.383Z,86.80
2018-06-13T22:50:38.502Z,88.50
2018-06-13T23:00:53.428Z,90.20
2018-06-13T23:03:43.299Z,91.50
2018-06-13T23:06:15.633Z,91.20
2018-06-13T23:09:21.824Z,91.10
2018-06-13T23:11:51.492Z,90.10
2018-06-13T23:14:23.336Z,90.00
2018-06-13T23:16:56.158Z,89.30
2018-06-13T23:23:23.291Z,90.40
2018-06-13T23:28:56.362Z,92.20
2018-06-13T23:31:26.852Z,92.30
2018-06-13T23:33:57.354Z,92.70
2018-06-13T23:37:38.822Z,92.90
2018-06-13T23:40:24.906Z,93.00
2018-06-13T23:42:57.484Z,93.40
2018-06-13T23:45:31.549Z,92.90
2018-06-13T23:48:07.680Z,92.90
2018-06-13T23:50:40.612Z,93.40
2018-06-13T23:53:19.456Z,93.60
2018-06-13T23:55:53.001Z,93.50
2018-06-13T23:58:27.603Z,93.00
